sensor_id;sensor_type;location;lat;lon;timestamp;P1;durP1;ratioP1;P2;durP2;ratioP2
43124;SDS011;49182;50.788;7.318;2023-02-28T00:01:11;5.47;;;2.58;;
43124;SDS011;49182;50.788;7.318;2023-02-28T00:03:38;5.82;;;2.28;;
43124;SDS011;49182;50.788;7.318;2023-02-28T00:06:05;5.75;;;2.47;;
43124;SDS011;49182;50.788;7.318;2023-02-28T00:08:33;7.63;;;2.40;;
43124;SDS011;49182;50.788;7.318;2023-02-28T00:11:00;5.97;;;2.55;;
43124;SDS011;49182;50.788;7.318;2023-02-28T00:13:29;5.70;;;2.33;;
43124;SDS011;49182;50.788;7.318;2023-02-28T00:15:59;6.78;;;2.60;;
43124;SDS011;49182;50.788;7.318;2023-02-28T00:18:27;10.23;;;2.97;;
43124;SDS011;49182;50.788;7.318;2023-02-28T00:20:56;5.53;;;2.35;;
43124;SDS011;49182;50.788;7.318;2023-02-28T00:23:23;5.28;;;2.30;;
43124;SDS011;49182;50.788;7.318;2023-02-28T00:25:50;5.90;;;2.72;;
43124;SDS011;49182;50.788;7.318;2023-02-28T00:28:17;5.93;;;2.55;;
43124;SDS011;49182;50.788;7.318;2023-02-28T00:30:45;5.28;;;2.38;;
43124;SDS011;49182;50.788;7.318;2023-02-28T00:33:12;5.18;;;2.70;;
43124;SDS011;49182;50.788;7.318;2023-02-28T00:35:39;8.02;;;3.00;;
43124;SDS011;49182;50.788;7.318;2023-02-28T00:38:08;9.70;;;2.95;;
43124;SDS011;49182;50.788;7.318;2023-02-28T00:40:35;5.95;;;2.70;;
43124;SDS011;49182;50.788;7.318;2023-02-28T00:43:01;8.07;;;3.00;;
43124;SDS011;49182;50.788;7.318;2023-02-28T00:45:28;6.20;;;2.95;;
43124;SDS011;49182;50.788;7.318;2023-02-28T00:47:57;6.40;;;2.90;;
43124;SDS011;49182;50.788;7.318;2023-02-28T00:50:24;6.05;;;3.05;;
43124;SDS011;49182;50.788;7.318;2023-02-28T00:52:51;5.55;;;2.70;;
43124;SDS011;49182;50.788;7.318;2023-02-28T00:55:19;7.60;;;2.78;;
43124;SDS011;49182;50.788;7.318;2023-02-28T00:57:47;6.07;;;2.20;;
43124;SDS011;49182;50.788;7.318;2023-02-28T01:00:14;5.68;;;2.72;;
43124;SDS011;49182;50.788;7.318;2023-02-28T01:02:41;5.85;;;2.80;;
43124;SDS011;49182;50.788;7.318;2023-02-28T01:05:09;6.20;;;2.70;;
43124;SDS011;49182;50.788;7.318;2023-02-28T01:07:36;6.35;;;2.92;;
43124;SDS011;49182;50.788;7.318;2023-02-28T01:10:03;6.60;;;2.78;;
43124;SDS011;49182;50.788;7.318;2023-02-28T01:12:30;6.35;;;2.72;;
43124;SDS011;49182;50.788;7.318;2023-02-28T01:14:57;14.88;;;3.05;;
43124;SDS011;49182;50.788;7.318;2023-02-28T01:17:23;6.75;;;2.70;;
43124;SDS011;49182;50.788;7.318;2023-02-28T01:19:52;6.18;;;3.03;;
43124;SDS011;49182;50.788;7.318;2023-02-28T01:22:21;6.50;;;3.03;;
43124;SDS011;49182;50.788;7.318;2023-02-28T01:24:47;9.13;;;2.88;;
43124;SDS011;49182;50.788;7.318;2023-02-28T01:27:14;6.82;;;3.08;;
43124;SDS011;49182;50.788;7.318;2023-02-28T01:29:40;5.65;;;2.60;;
43124;SDS011;49182;50.788;7.318;2023-02-28T01:32:08;5.55;;;2.65;;
43124;SDS011;49182;50.788;7.318;2023-02-28T01:34:35;5.30;;;2.50;;
43124;SDS011;49182;50.788;7.318;2023-02-28T01:37:02;6.18;;;2.58;;
43124;SDS011;49182;50.788;7.318;2023-02-28T01:39:30;7.15;;;2.75;;
43124;SDS011;49182;50.788;7.318;2023-02-28T01:41:57;7.53;;;2.95;;
43124;SDS011;49182;50.788;7.318;2023-02-28T01:47:23;5.63;;;2.20;;
43124;SDS011;49182;50.788;7.318;2023-02-28T01:49:54;7.97;;;2.37;;
43124;SDS011;49182;50.788;7.318;2023-02-28T01:52:21;5.43;;;2.63;;
43124;SDS011;49182;50.788;7.318;2023-02-28T01:54:51;6.50;;;3.00;;
43124;SDS011;49182;50.788;7.318;2023-02-28T01:57:20;6.05;;;3.35;;
43124;SDS011;49182;50.788;7.318;2023-02-28T01:59:51;7.55;;;2.60;;
43124;SDS011;49182;50.788;7.318;2023-02-28T02:02:21;7.32;;;2.50;;
43124;SDS011;49182;50.788;7.318;2023-02-28T02:04:50;8.48;;;2.70;;
43124;SDS011;49182;50.788;7.318;2023-02-28T02:07:21;5.28;;;2.30;;
43124;SDS011;49182;50.788;7.318;2023-02-28T02:09:56;6.45;;;2.58;;
43124;SDS011;49182;50.788;7.318;2023-02-28T02:12:27;4.40;;;2.17;;
43124;SDS011;49182;50.788;7.318;2023-02-28T02:15:05;7.05;;;3.22;;
43124;SDS011;49182;50.788;7.318;2023-02-28T02:17:38;7.25;;;2.25;;
43124;SDS011;49182;50.788;7.318;2023-02-28T02:23:33;6.32;;;2.88;;
43124;SDS011;49182;50.788;7.318;2023-02-28T02:26:28;6.93;;;2.70;;
43124;SDS011;49182;50.788;7.318;2023-02-28T02:29:28;6.90;;;2.70;;
43124;SDS011;49182;50.788;7.318;2023-02-28T02:32:14;8.00;;;2.83;;
43124;SDS011;49182;50.788;7.318;2023-02-28T02:35:01;8.32;;;2.70;;
43124;SDS011;49182;50.788;7.318;2023-02-28T02:37:38;5.80;;;2.80;;
43124;SDS011;49182;50.788;7.318;2023-02-28T02:40:10;8.57;;;3.10;;
43124;SDS011;49182;50.788;7.318;2023-02-28T02:42:41;7.23;;;2.83;;
43124;SDS011;49182;50.788;7.318;2023-02-28T02:45:15;7.07;;;2.70;;
43124;SDS011;49182;50.788;7.318;2023-02-28T02:47:45;7.30;;;3.08;;
43124;SDS011;49182;50.788;7.318;2023-02-28T02:50:15;7.05;;;3.05;;
43124;SDS011;49182;50.788;7.318;2023-02-28T02:52:48;4.70;;;2.28;;
43124;SDS011;49182;50.788;7.318;2023-02-28T02:55:20;6.53;;;2.40;;
43124;SDS011;49182;50.788;7.318;2023-02-28T02:57:49;6.95;;;2.50;;
43124;SDS011;49182;50.788;7.318;2023-02-28T03:00:20;6.70;;;3.08;;
43124;SDS011;49182;50.788;7.318;2023-02-28T03:05:23;9.48;;;2.42;;
43124;SDS011;49182;50.788;7.318;2023-02-28T03:07:52;7.32;;;2.50;;
43124;SDS011;49182;50.788;7.318;2023-02-28T03:10:25;5.30;;;2.38;;
43124;SDS011;49182;50.788;7.318;2023-02-28T03:13:00;5.70;;;2.58;;
43124;SDS011;49182;50.788;7.318;2023-02-28T03:15:39;6.72;;;2.83;;
43124;SDS011;49182;50.788;7.318;2023-02-28T03:18:16;6.38;;;3.13;;
43124;SDS011;49182;50.788;7.318;2023-02-28T03:20:54;8.15;;;2.95;;
43124;SDS011;49182;50.788;7.318;2023-02-28T03:23:31;8.52;;;2.95;;
43124;SDS011;49182;50.788;7.318;2023-02-28T03:26:07;6.35;;;2.80;;
43124;SDS011;49182;50.788;7.318;2023-02-28T03:28:41;7.90;;;3.22;;
43124;SDS011;49182;50.788;7.318;2023-02-28T03:31:13;6.63;;;2.63;;
43124;SDS011;49182;50.788;7.318;2023-02-28T03:33:44;5.07;;;2.70;;
43124;SDS011;49182;50.788;7.318;2023-02-28T03:36:18;7.53;;;2.70;;
43124;SDS011;49182;50.788;7.318;2023-02-28T03:38:49;10.23;;;2.70;;
43124;SDS011;49182;50.788;7.318;2023-02-28T03:41:21;7.90;;;2.80;;
43124;SDS011;49182;50.788;7.318;2023-02-28T03:43:50;7.93;;;2.80;;
43124;SDS011;49182;50.788;7.318;2023-02-28T03:46:24;5.93;;;2.80;;
43124;SDS011;49182;50.788;7.318;2023-02-28T03:48:55;5.18;;;2.75;;
43124;SDS011;49182;50.788;7.318;2023-02-28T03:51:28;6.15;;;2.72;;
43124;SDS011;49182;50.788;7.318;2023-02-28T03:53:56;5.22;;;2.53;;
43124;SDS011;49182;50.788;7.318;2023-02-28T03:56:30;7.35;;;2.40;;
43124;SDS011;49182;50.788;7.318;2023-02-28T03:59:00;6.20;;;2.38;;
43124;SDS011;49182;50.788;7.318;2023-02-28T04:01:32;4.43;;;2.20;;
43124;SDS011;49182;50.788;7.318;2023-02-28T04:04:02;7.50;;;2.95;;
43124;SDS011;49182;50.788;7.318;2023-02-28T04:06:32;8.07;;;3.10;;
43124;SDS011;49182;50.788;7.318;2023-02-28T04:09:00;5.80;;;2.80;;
43124;SDS011;49182;50.788;7.318;2023-02-28T04:11:29;7.32;;;2.53;;
43124;SDS011;49182;50.788;7.318;2023-02-28T04:13:59;6.95;;;2.80;;
43124;SDS011;49182;50.788;7.318;2023-02-28T04:16:26;5.85;;;2.95;;
43124;SDS011;49182;50.788;7.318;2023-02-28T04:19:01;7.90;;;2.83;;
43124;SDS011;49182;50.788;7.318;2023-02-28T04:21:28;8.02;;;2.42;;
43124;SDS011;49182;50.788;7.318;2023-02-28T04:23:57;10.13;;;3.00;;
43124;SDS011;49182;50.788;7.318;2023-02-28T04:26:24;5.97;;;2.67;;
43124;SDS011;49182;50.788;7.318;2023-02-28T04:28:51;4.13;;;2.15;;
43124;SDS011;49182;50.788;7.318;2023-02-28T04:31:17;5.15;;;2.33;;
43124;SDS011;49182;50.788;7.318;2023-02-28T04:33:44;5.13;;;2.65;;
43124;SDS011;49182;50.788;7.318;2023-02-28T04:36:10;5.00;;;2.55;;
43124;SDS011;49182;50.788;7.318;2023-02-28T04:38:37;4.93;;;2.50;;
43124;SDS011;49182;50.788;7.318;2023-02-28T04:41:06;6.40;;;2.55;;
43124;SDS011;49182;50.788;7.318;2023-02-28T04:43:33;7.20;;;3.05;;
43124;SDS011;49182;50.788;7.318;2023-02-28T04:46:01;7.13;;;2.95;;
43124;SDS011;49182;50.788;7.318;2023-02-28T04:48:30;6.40;;;2.78;;
43124;SDS011;49182;50.788;7.318;2023-02-28T04:50:59;6.47;;;3.05;;
43124;SDS011;49182;50.788;7.318;2023-02-28T04:53:26;6.78;;;2.97;;
43124;SDS011;49182;50.788;7.318;2023-02-28T04:55:54;6.88;;;3.28;;
43124;SDS011;49182;50.788;7.318;2023-02-28T04:58:22;7.53;;;3.08;;
43124;SDS011;49182;50.788;7.318;2023-02-28T05:00:49;5.78;;;2.50;;
43124;SDS011;49182;50.788;7.318;2023-02-28T05:03:15;5.57;;;2.47;;
43124;SDS011;49182;50.788;7.318;2023-02-28T05:05:42;7.05;;;2.72;;
43124;SDS011;49182;50.788;7.318;2023-02-28T05:08:09;9.48;;;3.10;;
43124;SDS011;49182;50.788;7.318;2023-02-28T05:10:35;7.05;;;3.03;;
43124;SDS011;49182;50.788;7.318;2023-02-28T05:13:02;6.55;;;2.80;;
43124;SDS011;49182;50.788;7.318;2023-02-28T05:15:30;6.13;;;2.60;;
43124;SDS011;49182;50.788;7.318;2023-02-28T05:17:56;5.50;;;2.90;;
43124;SDS011;49182;50.788;7.318;2023-02-28T05:20:23;7.18;;;3.10;;
43124;SDS011;49182;50.788;7.318;2023-02-28T05:22:50;6.55;;;2.67;;
43124;SDS011;49182;50.788;7.318;2023-02-28T05:25:17;8.13;;;3.15;;
43124;SDS011;49182;50.788;7.318;2023-02-28T05:27:52;7.13;;;3.35;;
43124;SDS011;49182;50.788;7.318;2023-02-28T05:30:20;7.80;;;2.90;;
43124;SDS011;49182;50.788;7.318;2023-02-28T05:32:49;8.13;;;3.50;;
43124;SDS011;49182;50.788;7.318;2023-02-28T05:35:16;9.73;;;3.95;;
43124;SDS011;49182;50.788;7.318;2023-02-28T05:37:43;11.52;;;4.85;;
43124;SDS011;49182;50.788;7.318;2023-02-28T05:40:10;9.68;;;4.10;;
43124;SDS011;49182;50.788;7.318;2023-02-28T05:42:37;11.45;;;3.78;;
43124;SDS011;49182;50.788;7.318;2023-02-28T05:45:04;7.25;;;3.65;;
43124;SDS011;49182;50.788;7.318;2023-02-28T05:47:32;7.93;;;3.63;;
43124;SDS011;49182;50.788;7.318;2023-02-28T05:50:00;8.63;;;3.80;;
43124;SDS011;49182;50.788;7.318;2023-02-28T05:52:27;10.25;;;3.65;;
43124;SDS011;49182;50.788;7.318;2023-02-28T05:54:54;8.23;;;3.88;;
43124;SDS011;49182;50.788;7.318;2023-02-28T05:57:21;8.90;;;3.78;;
43124;SDS011;49182;50.788;7.318;2023-02-28T05:59:50;9.82;;;4.75;;
43124;SDS011;49182;50.788;7.318;2023-02-28T06:02:16;9.18;;;4.03;;
43124;SDS011;49182;50.788;7.318;2023-02-28T06:04:44;8.82;;;3.80;;
43124;SDS011;49182;50.788;7.318;2023-02-28T06:07:12;10.63;;;4.20;;
43124;SDS011;49182;50.788;7.318;2023-02-28T06:09:39;8.13;;;4.20;;
43124;SDS011;49182;50.788;7.318;2023-02-28T06:12:06;10.70;;;3.65;;
43124;SDS011;49182;50.788;7.318;2023-02-28T06:14:33;12.18;;;4.90;;
43124;SDS011;49182;50.788;7.318;2023-02-28T06:17:00;10.35;;;4.75;;
43124;SDS011;49182;50.788;7.318;2023-02-28T06:19:28;10.07;;;3.67;;
43124;SDS011;49182;50.788;7.318;2023-02-28T06:21:55;13.45;;;4.30;;
43124;SDS011;49182;50.788;7.318;2023-02-28T06:24:24;8.35;;;3.60;;
43124;SDS011;49182;50.788;7.318;2023-02-28T06:26:52;14.25;;;4.40;;
43124;SDS011;49182;50.788;7.318;2023-02-28T06:29:19;5.55;;;3.17;;
43124;SDS011;49182;50.788;7.318;2023-02-28T06:31:46;7.70;;;2.95;;
43124;SDS011;49182;50.788;7.318;2023-02-28T06:34:13;6.95;;;3.60;;
43124;SDS011;49182;50.788;7.318;2023-02-28T06:36:40;7.07;;;3.58;;
43124;SDS011;49182;50.788;7.318;2023-02-28T06:39:08;9.77;;;4.43;;
43124;SDS011;49182;50.788;7.318;2023-02-28T06:41:36;7.22;;;3.38;;
43124;SDS011;49182;50.788;7.318;2023-02-28T06:44:19;7.63;;;3.72;;
43124;SDS011;49182;50.788;7.318;2023-02-28T06:46:45;10.05;;;3.75;;
43124;SDS011;49182;50.788;7.318;2023-02-28T06:49:12;7.88;;;4.10;;
43124;SDS011;49182;50.788;7.318;2023-02-28T06:51:40;10.07;;;3.90;;
43124;SDS011;49182;50.788;7.318;2023-02-28T06:54:08;7.80;;;4.10;;
43124;SDS011;49182;50.788;7.318;2023-02-28T06:56:34;9.30;;;4.07;;
43124;SDS011;49182;50.788;7.318;2023-02-28T06:59:03;9.40;;;3.63;;
43124;SDS011;49182;50.788;7.318;2023-02-28T07:01:30;8.63;;;3.38;;
43124;SDS011;49182;50.788;7.318;2023-02-28T07:03:57;8.73;;;4.40;;
43124;SDS011;49182;50.788;7.318;2023-02-28T07:06:24;7.95;;;3.45;;
43124;SDS011;49182;50.788;7.318;2023-02-28T07:08:51;10.77;;;3.72;;
43124;SDS011;49182;50.788;7.318;2023-02-28T07:11:19;6.53;;;2.95;;
43124;SDS011;49182;50.788;7.318;2023-02-28T07:13:47;5.00;;;2.72;;
43124;SDS011;49182;50.788;7.318;2023-02-28T07:16:14;7.47;;;3.05;;
43124;SDS011;49182;50.788;7.318;2023-02-28T07:18:41;11.05;;;4.05;;
43124;SDS011;49182;50.788;7.318;2023-02-28T07:21:08;7.93;;;3.38;;
43124;SDS011;49182;50.788;7.318;2023-02-28T07:23:36;6.72;;;3.63;;
43124;SDS011;49182;50.788;7.318;2023-02-28T07:26:04;7.15;;;3.67;;
43124;SDS011;49182;50.788;7.318;2023-02-28T07:28:31;8.82;;;3.88;;
43124;SDS011;49182;50.788;7.318;2023-02-28T07:31:03;8.90;;;3.60;;
43124;SDS011;49182;50.788;7.318;2023-02-28T07:33:31;8.10;;;3.90;;
43124;SDS011;49182;50.788;7.318;2023-02-28T07:36:00;9.02;;;3.75;;
43124;SDS011;49182;50.788;7.318;2023-02-28T07:38:27;7.65;;;3.80;;
43124;SDS011;49182;50.788;7.318;2023-02-28T07:40:53;7.47;;;3.53;;
43124;SDS011;49182;50.788;7.318;2023-02-28T07:43:20;6.38;;;2.92;;
43124;SDS011;49182;50.788;7.318;2023-02-28T07:45:47;7.10;;;2.78;;
43124;SDS011;49182;50.788;7.318;2023-02-28T07:48:15;5.18;;;2.97;;
43124;SDS011;49182;50.788;7.318;2023-02-28T07:50:41;7.57;;;3.28;;
43124;SDS011;49182;50.788;7.318;2023-02-28T07:53:08;5.93;;;2.90;;
43124;SDS011;49182;50.788;7.318;2023-02-28T07:55:35;5.93;;;2.97;;
43124;SDS011;49182;50.788;7.318;2023-02-28T07:58:02;7.40;;;3.00;;
43124;SDS011;49182;50.788;7.318;2023-02-28T08:00:28;6.55;;;3.28;;
43124;SDS011;49182;50.788;7.318;2023-02-28T08:02:55;6.80;;;3.38;;
43124;SDS011;49182;50.788;7.318;2023-02-28T08:05:23;5.15;;;2.90;;
43124;SDS011;49182;50.788;7.318;2023-02-28T08:07:50;5.70;;;3.17;;
43124;SDS011;49182;50.788;7.318;2023-02-28T08:10:16;6.45;;;3.35;;
43124;SDS011;49182;50.788;7.318;2023-02-28T08:12:43;6.13;;;3.30;;
43124;SDS011;49182;50.788;7.318;2023-02-28T08:15:10;5.65;;;3.05;;
43124;SDS011;49182;50.788;7.318;2023-02-28T08:17:37;6.35;;;3.25;;
43124;SDS011;49182;50.788;7.318;2023-02-28T08:20:04;5.13;;;2.80;;
43124;SDS011;49182;50.788;7.318;2023-02-28T08:22:32;6.07;;;2.90;;
43124;SDS011;49182;50.788;7.318;2023-02-28T08:24:59;6.38;;;2.95;;
43124;SDS011;49182;50.788;7.318;2023-02-28T08:27:26;6.22;;;3.15;;
43124;SDS011;49182;50.788;7.318;2023-02-28T08:29:52;5.68;;;2.88;;
43124;SDS011;49182;50.788;7.318;2023-02-28T08:32:20;6.20;;;2.78;;
43124;SDS011;49182;50.788;7.318;2023-02-28T08:34:55;7.60;;;3.13;;
43124;SDS011;49182;50.788;7.318;2023-02-28T08:37:22;7.22;;;3.20;;
43124;SDS011;49182;50.788;7.318;2023-02-28T08:39:50;6.15;;;2.88;;
43124;SDS011;49182;50.788;7.318;2023-02-28T08:44:48;7.85;;;2.88;;
43124;SDS011;49182;50.788;7.318;2023-02-28T08:47:15;4.60;;;2.50;;
43124;SDS011;49182;50.788;7.318;2023-02-28T08:49:42;5.55;;;2.53;;
43124;SDS011;49182;50.788;7.318;2023-02-28T08:52:08;4.57;;;2.17;;
43124;SDS011;49182;50.788;7.318;2023-02-28T08:54:35;6.93;;;3.90;;
43124;SDS011;49182;50.788;7.318;2023-02-28T08:57:03;5.05;;;2.20;;
43124;SDS011;49182;50.788;7.318;2023-02-28T08:59:30;5.63;;;2.67;;
43124;SDS011;49182;50.788;7.318;2023-02-28T09:01:57;4.95;;;2.70;;
43124;SDS011;49182;50.788;7.318;2023-02-28T09:04:23;5.63;;;2.40;;
43124;SDS011;49182;50.788;7.318;2023-02-28T09:06:50;3.92;;;2.08;;
43124;SDS011;49182;50.788;7.318;2023-02-28T09:09:17;4.15;;;2.10;;
43124;SDS011;49182;50.788;7.318;2023-02-28T09:11:44;5.75;;;2.33;;
43124;SDS011;49182;50.788;7.318;2023-02-28T09:14:12;5.03;;;2.13;;
43124;SDS011;49182;50.788;7.318;2023-02-28T09:16:38;5.30;;;2.15;;
43124;SDS011;49182;50.788;7.318;2023-02-28T09:19:05;5.03;;;2.10;;
43124;SDS011;49182;50.788;7.318;2023-02-28T09:21:32;5.68;;;2.72;;
43124;SDS011;49182;50.788;7.318;2023-02-28T09:23:59;4.40;;;1.50;;
43124;SDS011;49182;50.788;7.318;2023-02-28T09:26:26;4.13;;;1.75;;
43124;SDS011;49182;50.788;7.318;2023-02-28T09:31:35;5.00;;;2.15;;
43124;SDS011;49182;50.788;7.318;2023-02-28T09:34:03;6.40;;;1.90;;
43124;SDS011;49182;50.788;7.318;2023-02-28T09:36:30;4.90;;;1.70;;
43124;SDS011;49182;50.788;7.318;2023-02-28T09:39:11;4.55;;;2.15;;
43124;SDS011;49182;50.788;7.318;2023-02-28T09:41:41;6.45;;;2.00;;
43124;SDS011;49182;50.788;7.318;2023-02-28T09:44:09;5.47;;;2.30;;
43124;SDS011;49182;50.788;7.318;2023-02-28T09:46:48;3.78;;;1.45;;
43124;SDS011;49182;50.788;7.318;2023-02-28T09:49:19;3.45;;;1.60;;
43124;SDS011;49182;50.788;7.318;2023-02-28T09:51:49;4.93;;;1.98;;
43124;SDS011;49182;50.788;7.318;2023-02-28T09:54:22;3.08;;;1.50;;
43124;SDS011;49182;50.788;7.318;2023-02-28T09:56:50;4.05;;;1.70;;
43124;SDS011;49182;50.788;7.318;2023-02-28T09:59:28;3.35;;;1.60;;
43124;SDS011;49182;50.788;7.318;2023-02-28T10:02:04;3.25;;;1.77;;
43124;SDS011;49182;50.788;7.318;2023-02-28T10:04:44;3.35;;;1.58;;
43124;SDS011;49182;50.788;7.318;2023-02-28T10:07:17;4.75;;;1.67;;
43124;SDS011;49182;50.788;7.318;2023-02-28T10:09:59;3.70;;;1.58;;
43124;SDS011;49182;50.788;7.318;2023-02-28T10:14:58;4.03;;;1.83;;
43124;SDS011;49182;50.788;7.318;2023-02-28T10:17:29;4.32;;;1.50;;
43124;SDS011;49182;50.788;7.318;2023-02-28T10:20:21;3.42;;;1.40;;
43124;SDS011;49182;50.788;7.318;2023-02-28T10:22:52;3.15;;;1.50;;
43124;SDS011;49182;50.788;7.318;2023-02-28T10:25:24;4.63;;;1.52;;
43124;SDS011;49182;50.788;7.318;2023-02-28T10:27:52;3.60;;;1.55;;
43124;SDS011;49182;50.788;7.318;2023-02-28T10:30:20;4.00;;;1.58;;
43124;SDS011;49182;50.788;7.318;2023-02-28T10:32:49;3.58;;;1.67;;
43124;SDS011;49182;50.788;7.318;2023-02-28T10:35:18;4.57;;;1.67;;
43124;SDS011;49182;50.788;7.318;2023-02-28T10:37:46;4.00;;;1.60;;
43124;SDS011;49182;50.788;7.318;2023-02-28T10:40:29;3.97;;;1.70;;
43124;SDS011;49182;50.788;7.318;2023-02-28T10:42:59;4.07;;;1.70;;
43124;SDS011;49182;50.788;7.318;2023-02-28T10:45:28;4.18;;;1.80;;
43124;SDS011;49182;50.788;7.318;2023-02-28T10:47:58;4.55;;;1.83;;
43124;SDS011;49182;50.788;7.318;2023-02-28T10:50:28;3.63;;;1.80;;
43124;SDS011;49182;50.788;7.318;2023-02-28T10:53:05;4.45;;;1.90;;
43124;SDS011;49182;50.788;7.318;2023-02-28T10:55:41;4.22;;;1.80;;
43124;SDS011;49182;50.788;7.318;2023-02-28T10:58:18;5.35;;;1.83;;
43124;SDS011;49182;50.788;7.318;2023-02-28T11:00:47;4.28;;;1.90;;
43124;SDS011;49182;50.788;7.318;2023-02-28T11:03:24;4.13;;;1.80;;
43124;SDS011;49182;50.788;7.318;2023-02-28T11:05:55;3.47;;;1.60;;
43124;SDS011;49182;50.788;7.318;2023-02-28T11:08:22;3.90;;;1.92;;
43124;SDS011;49182;50.788;7.318;2023-02-28T11:10:53;3.95;;;1.63;;
43124;SDS011;49182;50.788;7.318;2023-02-28T11:13:32;4.88;;;2.50;;
43124;SDS011;49182;50.788;7.318;2023-02-28T11:16:00;4.97;;;1.80;;
43124;SDS011;49182;50.788;7.318;2023-02-28T11:18:33;3.70;;;1.77;;
43124;SDS011;49182;50.788;7.318;2023-02-28T11:21:06;4.25;;;1.75;;
43124;SDS011;49182;50.788;7.318;2023-02-28T11:23:35;4.38;;;1.95;;
43124;SDS011;49182;50.788;7.318;2023-02-28T11:26:06;4.38;;;1.98;;
43124;SDS011;49182;50.788;7.318;2023-02-28T11:28:34;8.32;;;1.88;;
43124;SDS011;49182;50.788;7.318;2023-02-28T11:31:03;4.50;;;1.80;;
43124;SDS011;49182;50.788;7.318;2023-02-28T11:33:49;3.95;;;2.03;;
43124;SDS011;49182;50.788;7.318;2023-02-28T11:36:18;4.60;;;1.95;;
43124;SDS011;49182;50.788;7.318;2023-02-28T11:38:47;4.20;;;2.03;;
43124;SDS011;49182;50.788;7.318;2023-02-28T11:41:20;4.45;;;2.10;;
43124;SDS011;49182;50.788;7.318;2023-02-28T11:44:08;3.58;;;1.67;;
43124;SDS011;49182;50.788;7.318;2023-02-28T11:46:44;6.30;;;2.40;;
43124;SDS011;49182;50.788;7.318;2023-02-28T11:49:22;3.30;;;1.70;;
43124;SDS011;49182;50.788;7.318;2023-02-28T11:51:59;3.33;;;1.88;;
43124;SDS011;49182;50.788;7.318;2023-02-28T11:54:35;4.88;;;1.75;;
43124;SDS011;49182;50.788;7.318;2023-02-28T11:57:27;4.57;;;1.90;;
43124;SDS011;49182;50.788;7.318;2023-02-28T12:00:03;5.28;;;1.90;;
43124;SDS011;49182;50.788;7.318;2023-02-28T12:02:46;4.25;;;1.83;;
43124;SDS011;49182;50.788;7.318;2023-02-28T12:05:26;4.97;;;2.17;;
43124;SDS011;49182;50.788;7.318;2023-02-28T12:08:03;5.68;;;2.08;;
43124;SDS011;49182;50.788;7.318;2023-02-28T12:10:44;5.70;;;1.92;;
43124;SDS011;49182;50.788;7.318;2023-02-28T12:13:24;5.88;;;2.30;;
43124;SDS011;49182;50.788;7.318;2023-02-28T12:16:01;3.95;;;2.10;;
43124;SDS011;49182;50.788;7.318;2023-02-28T12:21:47;4.13;;;1.98;;
43124;SDS011;49182;50.788;7.318;2023-02-28T12:24:28;4.53;;;2.20;;
43124;SDS011;49182;50.788;7.318;2023-02-28T12:27:05;5.80;;;2.50;;
43124;SDS011;49182;50.788;7.318;2023-02-28T12:29:38;4.50;;;2.17;;
43124;SDS011;49182;50.788;7.318;2023-02-28T12:32:09;6.47;;;2.38;;
43124;SDS011;49182;50.788;7.318;2023-02-28T12:34:42;5.22;;;3.00;;
43124;SDS011;49182;50.788;7.318;2023-02-28T12:37:14;3.57;;;1.90;;
43124;SDS011;49182;50.788;7.318;2023-02-28T12:39:46;5.50;;;2.33;;
43124;SDS011;49182;50.788;7.318;2023-02-28T12:42:17;3.92;;;1.90;;
43124;SDS011;49182;50.788;7.318;2023-02-28T12:44:51;5.68;;;2.95;;
43124;SDS011;49182;50.788;7.318;2023-02-28T12:47:23;5.35;;;2.17;;
43124;SDS011;49182;50.788;7.318;2023-02-28T12:49:50;4.40;;;2.03;;
43124;SDS011;49182;50.788;7.318;2023-02-28T12:52:23;4.35;;;2.15;;
43124;SDS011;49182;50.788;7.318;2023-02-28T12:54:58;4.97;;;2.35;;
43124;SDS011;49182;50.788;7.318;2023-02-28T12:57:32;5.00;;;2.20;;
43124;SDS011;49182;50.788;7.318;2023-02-28T13:00:03;8.15;;;4.35;;
43124;SDS011;49182;50.788;7.318;2023-02-28T13:08:49;6.40;;;2.35;;
43124;SDS011;49182;50.788;7.318;2023-02-28T13:11:28;6.07;;;3.05;;
43124;SDS011;49182;50.788;7.318;2023-02-28T13:13:57;5.15;;;2.13;;
43124;SDS011;49182;50.788;7.318;2023-02-28T13:16:26;5.18;;;2.22;;
43124;SDS011;49182;50.788;7.318;2023-02-28T13:18:53;4.50;;;2.25;;
43124;SDS011;49182;50.788;7.318;2023-02-28T13:21:41;5.03;;;2.20;;
43124;SDS011;49182;50.788;7.318;2023-02-28T13:24:10;4.95;;;2.20;;
43124;SDS011;49182;50.788;7.318;2023-02-28T13:27:10;4.43;;;2.40;;
43124;SDS011;49182;50.788;7.318;2023-02-28T13:29:46;9.85;;;2.70;;
43124;SDS011;49182;50.788;7.318;2023-02-28T13:35:13;5.57;;;2.55;;
43124;SDS011;49182;50.788;7.318;2023-02-28T13:44:02;5.13;;;2.47;;
43124;SDS011;49182;50.788;7.318;2023-02-28T13:46:31;5.03;;;2.85;;
43124;SDS011;49182;50.788;7.318;2023-02-28T13:51:46;5.82;;;2.75;;
43124;SDS011;49182;50.788;7.318;2023-02-28T13:54:17;7.15;;;3.10;;
43124;SDS011;49182;50.788;7.318;2023-02-28T13:56:52;4.60;;;2.55;;
43124;SDS011;49182;50.788;7.318;2023-02-28T13:59:33;5.07;;;2.67;;
43124;SDS011;49182;50.788;7.318;2023-02-28T14:05:01;6.82;;;3.03;;
43124;SDS011;49182;50.788;7.318;2023-02-28T14:07:32;5.00;;;2.75;;
43124;SDS011;49182;50.788;7.318;2023-02-28T14:10:06;5.53;;;2.60;;
43124;SDS011;49182;50.788;7.318;2023-02-28T14:12:55;6.22;;;2.92;;
43124;SDS011;49182;50.788;7.318;2023-02-28T14:15:35;5.13;;;2.60;;
43124;SDS011;49182;50.788;7.318;2023-02-28T14:18:16;5.60;;;2.80;;
43124;SDS011;49182;50.788;7.318;2023-02-28T14:20:47;4.53;;;2.45;;
43124;SDS011;49182;50.788;7.318;2023-02-28T14:23:20;4.95;;;2.28;;
43124;SDS011;49182;50.788;7.318;2023-02-28T14:26:00;5.47;;;2.80;;
43124;SDS011;49182;50.788;7.318;2023-02-28T14:28:36;5.20;;;3.00;;
43124;SDS011;49182;50.788;7.318;2023-02-28T14:31:13;6.32;;;2.83;;
43124;SDS011;49182;50.788;7.318;2023-02-28T14:33:46;6.97;;;3.10;;
43124;SDS011;49182;50.788;7.318;2023-02-28T14:36:31;4.88;;;2.60;;
43124;SDS011;49182;50.788;7.318;2023-02-28T14:38:59;5.82;;;2.80;;
43124;SDS011;49182;50.788;7.318;2023-02-28T14:41:32;5.95;;;3.08;;
43124;SDS011;49182;50.788;7.318;2023-02-28T14:44:00;6.30;;;3.08;;
43124;SDS011;49182;50.788;7.318;2023-02-28T14:46:33;5.82;;;3.10;;
43124;SDS011;49182;50.788;7.318;2023-02-28T14:49:03;6.30;;;2.67;;
43124;SDS011;49182;50.788;7.318;2023-02-28T14:51:30;5.50;;;2.63;;
43124;SDS011;49182;50.788;7.318;2023-02-28T14:53:58;4.80;;;2.75;;
43124;SDS011;49182;50.788;7.318;2023-02-28T14:56:27;6.10;;;3.00;;
43124;SDS011;49182;50.788;7.318;2023-02-28T14:58:59;6.05;;;3.28;;
43124;SDS011;49182;50.788;7.318;2023-02-28T15:01:26;6.00;;;2.92;;
43124;SDS011;49182;50.788;7.318;2023-02-28T15:03:58;6.78;;;3.00;;
43124;SDS011;49182;50.788;7.318;2023-02-28T15:06:26;6.53;;;2.92;;
43124;SDS011;49182;50.788;7.318;2023-02-28T15:09:13;5.78;;;2.90;;
43124;SDS011;49182;50.788;7.318;2023-02-28T15:11:41;8.52;;;3.45;;
43124;SDS011;49182;50.788;7.318;2023-02-28T15:16:44;6.13;;;3.20;;
43124;SDS011;49182;50.788;7.318;2023-02-28T15:19:17;5.35;;;3.28;;
43124;SDS011;49182;50.788;7.318;2023-02-28T15:21:49;7.18;;;2.90;;
43124;SDS011;49182;50.788;7.318;2023-02-28T15:24:19;8.02;;;2.78;;
43124;SDS011;49182;50.788;7.318;2023-02-28T15:26:53;5.80;;;3.08;;
43124;SDS011;49182;50.788;7.318;2023-02-28T15:29:22;4.90;;;2.95;;
43124;SDS011;49182;50.788;7.318;2023-02-28T15:31:52;6.32;;;3.03;;
43124;SDS011;49182;50.788;7.318;2023-02-28T15:34:28;5.88;;;3.00;;
43124;SDS011;49182;50.788;7.318;2023-02-28T15:40:05;6.35;;;2.88;;
43124;SDS011;49182;50.788;7.318;2023-02-28T15:42:39;6.35;;;3.00;;
43124;SDS011;49182;50.788;7.318;2023-02-28T15:45:06;6.75;;;2.97;;
43124;SDS011;49182;50.788;7.318;2023-02-28T15:47:53;6.70;;;3.20;;
43124;SDS011;49182;50.788;7.318;2023-02-28T15:50:27;5.45;;;3.10;;
43124;SDS011;49182;50.788;7.318;2023-02-28T15:52:56;5.85;;;3.17;;
43124;SDS011;49182;50.788;7.318;2023-02-28T15:55:24;5.90;;;3.00;;